createdAt,value
2023-03-24T00:01:52.973Z,99.50
2023-03-24T00:04:19.785Z,99.50
2023-03-24T00:06:49.075Z,99.60
2023-03-24T00:09:16.541Z,99.60
2023-03-24T00:11:43.252Z,99.70
2023-03-24T00:14:12.046Z,99.70
2023-03-24T00:16:42.658Z,99.70
2023-03-24T00:19:16.135Z,99.90
2023-03-24T00:21:44.071Z,99.90
2023-03-24T00:24:12.698Z,99.90
2023-03-24T00:26:41.140Z,99.90
2023-03-24T00:29:10.899Z,99.90
2023-03-24T00:31:39.944Z,99.90
2023-03-24T00:34:08.708Z,99.90
2023-03-24T00:36:36.326Z,99.90
2023-03-24T00:39:05.083Z,99.90
2023-03-24T00:41:32.149Z,99.90
2023-03-24T00:44:00.326Z,99.90
2023-03-24T00:46:27.617Z,99.90
2023-03-24T00:49:05.497Z,99.90
2023-03-24T00:51:36.228Z,99.90
2023-03-24T00:54:03.439Z,99.90
2023-03-24T00:56:33.184Z,99.90
2023-03-24T00:59:02.422Z,99.90
2023-03-24T01:01:33.331Z,99.90
2023-03-24T01:04:01.195Z,99.90
2023-03-24T01:06:28.170Z,99.90
2023-03-24T01:08:54.993Z,99.90
2023-03-24T01:11:24.210Z,99.90
2023-03-24T01:13:54.157Z,99.90
2023-03-24T01:16:25.422Z,99.90
2023-03-24T01:18:52.723Z,99.90
2023-03-24T01:21:19.456Z,99.90
2023-03-24T01:23:46.324Z,99.90
2023-03-24T01:26:13.019Z,99.90
2023-03-24T01:28:41.070Z,99.90
2023-03-24T01:31:09.907Z,99.90
2023-03-24T01:33:37.995Z,99.90
2023-03-24T01:36:06.454Z,99.90
2023-03-24T01:38:34.043Z,99.90
2023-03-24T01:41:00.800Z,99.90
2023-03-24T01:43:31.151Z,99.90
2023-03-24T01:46:08.073Z,99.90
2023-03-24T01:48:40.741Z,99.90
2023-03-24T01:51:13.667Z,99.90
2023-03-24T01:53:49.888Z,99.90
2023-03-24T01:56:17.918Z,99.90
2023-03-24T01:58:49.770Z,99.90
2023-03-24T02:01:29.889Z,99.90
2023-03-24T02:04:25.721Z,99.90
2023-03-24T02:06:54.776Z,99.90
2023-03-24T02:09:21.693Z,99.90
2023-03-24T02:11:48.388Z,99.90
2023-03-24T02:14:15.464Z,99.90
2023-03-24T02:16:53.910Z,99.90
2023-03-24T02:19:38.026Z,99.90
2023-03-24T02:22:14.677Z,99.90
2023-03-24T02:25:08.941Z,99.90
2023-03-24T02:27:51.151Z,99.90
2023-03-24T02:30:35.962Z,99.90
2023-03-24T02:33:20.844Z,99.90
2023-03-24T02:35:53.641Z,99.90
2023-03-24T02:38:41.496Z,99.90
2023-03-24T02:41:26.953Z,99.90
2023-03-24T02:44:08.662Z,99.90
2023-03-24T02:46:46.254Z,99.90
2023-03-24T02:49:36.767Z,99.90
2023-03-24T02:52:23.857Z,99.90
2023-03-24T02:55:05.248Z,99.90
2023-03-24T02:57:53.064Z,99.90
2023-03-24T03:01:10.345Z,99.90
2023-03-24T03:04:05.172Z,99.90
2023-03-24T03:06:40.228Z,99.90
2023-03-24T03:09:12.408Z,99.90
2023-03-24T03:11:42.548Z,99.90
2023-03-24T03:14:20.709Z,99.90
2023-03-24T03:16:54.477Z,99.90
2023-03-24T03:19:27.888Z,99.90
2023-03-24T03:21:56.674Z,99.90
2023-03-24T03:24:34.184Z,99.90
2023-03-24T03:27:08.254Z,99.90
2023-03-24T03:29:39.905Z,99.90
2023-03-24T03:32:10.908Z,99.90
2023-03-24T03:34:43.976Z,99.90
2023-03-24T03:37:22.305Z,99.90
2023-03-24T03:40:00.024Z,99.90
2023-03-24T03:42:28.267Z,99.90
2023-03-24T03:44:55.748Z,99.90
2023-03-24T03:47:23.105Z,99.90
2023-03-24T03:49:51.135Z,99.90
2023-03-24T03:52:18.718Z,99.90
2023-03-24T03:54:47.765Z,99.90
2023-03-24T03:57:14.791Z,99.90
2023-03-24T04:00:11.784Z,99.90
2023-03-24T04:03:18.432Z,99.90
2023-03-24T04:06:01.860Z,99.90
2023-03-24T04:08:52.195Z,99.90
2023-03-24T04:11:55.532Z,99.90
2023-03-24T04:14:51.010Z,99.90
2023-03-24T04:18:05.101Z,99.90
2023-03-24T04:21:02.190Z,99.90
2023-03-24T04:23:40.056Z,99.90
2023-03-24T04:26:26.026Z,99.90
2023-03-24T04:29:10.397Z,99.90
2023-03-24T04:32:11.307Z,99.90
2023-03-24T04:34:46.173Z,99.90
2023-03-24T04:37:32.584Z,99.90
2023-03-24T04:40:08.585Z,99.90
2023-03-24T04:42:46.275Z,99.90
2023-03-24T04:45:15.343Z,99.90
2023-03-24T04:48:04.644Z,99.90
2023-03-24T04:50:53.873Z,99.90
2023-03-24T04:53:20.993Z,99.90
2023-03-24T04:55:53.716Z,99.90
2023-03-24T04:58:35.731Z,99.90
2023-03-24T05:01:03.205Z,99.90
2023-03-24T05:03:31.025Z,99.90
2023-03-24T05:05:59.132Z,99.90
2023-03-24T05:08:26.068Z,99.90
2023-03-24T05:10:53.080Z,99.90
2023-03-24T05:13:20.263Z,99.90
2023-03-24T05:15:53.501Z,99.90
2023-03-24T05:18:27.874Z,99.90
2023-03-24T05:20:56.756Z,99.90
2023-03-24T05:23:23.428Z,99.90
2023-03-24T05:25:50.557Z,99.90
2023-03-24T05:28:19.403Z,99.90
2023-03-24T05:30:47.219Z,99.90
2023-03-24T05:33:40.568Z,99.90
2023-03-24T05:36:11.015Z,99.90
2023-03-24T05:38:39.324Z,99.90
2023-03-24T05:41:06.616Z,99.90
2023-03-24T05:43:37.030Z,99.90
2023-03-24T05:46:12.935Z,99.90
2023-03-24T05:48:40.730Z,99.90
2023-03-24T05:51:12.183Z,99.80
2023-03-24T05:53:38.926Z,99.80
2023-03-24T05:56:18.176Z,99.80
2023-03-24T05:59:01.780Z,99.70
2023-03-24T06:01:48.305Z,99.60
2023-03-24T06:04:29.758Z,99.50
2023-03-24T06:07:02.744Z,99.40
2023-03-24T06:09:42.322Z,99.30
2023-03-24T06:12:11.207Z,99.10
2023-03-24T06:14:45.461Z,99.00
2023-03-24T06:17:14.686Z,99.00
2023-03-24T06:19:49.775Z,99.00
2023-03-24T06:22:25.112Z,99.00
2023-03-24T06:24:53.732Z,99.00
2023-03-24T06:27:21.654Z,98.90
2023-03-24T06:29:48.436Z,98.90
2023-03-24T06:32:18.096Z,98.90
2023-03-24T06:34:45.066Z,99.00
2023-03-24T06:37:17.250Z,99.10
2023-03-24T06:39:45.005Z,99.00
2023-03-24T06:42:13.713Z,99.10
2023-03-24T06:44:40.808Z,99.10
2023-03-24T06:47:08.053Z,99.10
2023-03-24T06:49:37.010Z,99.10
2023-03-24T06:52:04.584Z,99.20
2023-03-24T06:54:34.206Z,99.20
2023-03-24T06:57:01.755Z,99.40
2023-03-24T06:59:48.511Z,99.30
2023-03-24T07:02:15.802Z,99.30
2023-03-24T07:04:45.783Z,99.30
2023-03-24T07:10:14.296Z,99.00
2023-03-24T07:12:41.481Z,99.30
2023-03-24T07:15:09.324Z,98.90
2023-03-24T07:17:36.191Z,98.70
2023-03-24T07:20:32.025Z,99.00
2023-03-24T07:23:08.510Z,99.30
2023-03-24T07:26:01.547Z,99.70
2023-03-24T07:29:03.827Z,99.70
2023-03-24T07:31:42.432Z,99.60
2023-03-24T07:34:12.173Z,99.50
2023-03-24T07:36:39.916Z,99.40
2023-03-24T07:39:11.538Z,99.00
2023-03-24T07:41:38.452Z,98.70
2023-03-24T07:44:13.286Z,98.30
2023-03-24T07:46:45.050Z,98.30
2023-03-24T07:49:18.856Z,98.20
2023-03-24T07:51:51.966Z,98.00
2023-03-24T07:54:25.597Z,98.10
2023-03-24T07:56:53.676Z,97.70
2023-03-24T07:59:20.503Z,97.80
2023-03-24T08:01:54.431Z,97.00
2023-03-24T08:04:35.002Z,96.50
2023-03-24T08:07:09.543Z,96.40
2023-03-24T08:09:36.365Z,96.20
2023-03-24T08:12:10.306Z,95.80
2023-03-24T08:14:46.487Z,95.60
2023-03-24T08:17:13.213Z,95.50
2023-03-24T08:19:52.031Z,95.80
2023-03-24T08:22:25.576Z,95.90
2023-03-24T08:24:52.197Z,95.70
2023-03-24T08:27:18.960Z,94.80
2023-03-24T08:29:45.725Z,94.80
2023-03-24T08:32:12.404Z,94.60
2023-03-24T08:34:39.093Z,94.80
2023-03-24T08:37:05.777Z,95.30
2023-03-24T08:39:35.830Z,95.50
2023-03-24T08:42:03.072Z,95.70
2023-03-24T08:44:32.408Z,95.50
2023-03-24T08:47:01.180Z,94.70
2023-03-24T08:49:28.027Z,93.40
2023-03-24T08:51:55.038Z,92.90
2023-03-24T08:54:23.731Z,92.10
2023-03-24T08:56:50.958Z,91.50
2023-03-24T08:59:18.244Z,91.10
2023-03-24T09:01:45.660Z,90.30
2023-03-24T09:04:12.880Z,89.90
2023-03-24T09:06:39.675Z,89.30
2023-03-24T09:09:08.217Z,89.30
2023-03-24T09:11:36.697Z,88.90
2023-03-24T09:14:04.773Z,90.00
2023-03-24T09:16:31.668Z,89.50
2023-03-24T09:18:58.347Z,89.40
2023-03-24T09:21:25.358Z,89.60
2023-03-24T09:23:52.013Z,90.00
2023-03-24T09:26:18.696Z,90.10
2023-03-24T09:28:45.440Z,90.30
2023-03-24T09:31:12.109Z,90.40
2023-03-24T09:33:38.844Z,90.80
2023-03-24T09:36:05.961Z,90.90
2023-03-24T09:38:34.912Z,90.70
2023-03-24T09:41:03.302Z,90.40
2023-03-24T09:43:54.449Z,90.10
2023-03-24T09:46:30.494Z,88.30
2023-03-24T09:48:57.768Z,88.40
2023-03-24T09:51:31.795Z,89.80
2023-03-24T09:54:17.240Z,88.80
2023-03-24T09:56:46.056Z,88.80
2023-03-24T09:59:35.848Z,89.70
2023-03-24T10:02:16.282Z,89.30
2023-03-24T10:04:42.982Z,90.70
2023-03-24T10:07:25.208Z,91.10
2023-03-24T10:10:02.071Z,90.30
2023-03-24T10:12:40.126Z,90.40
2023-03-24T10:15:10.743Z,90.30
2023-03-24T10:18:02.014Z,90.20
2023-03-24T10:20:50.622Z,90.10
2023-03-24T10:23:27.021Z,90.00
2023-03-24T10:26:04.582Z,91.50
2023-03-24T10:28:51.550Z,92.10
2023-03-24T10:31:26.234Z,92.10
2023-03-24T10:33:53.040Z,92.50
2023-03-24T10:36:21.745Z,92.60
2023-03-24T10:38:48.772Z,92.10
2023-03-24T10:41:19.034Z,92.20
2023-03-24T10:43:47.238Z,91.20
2023-03-24T10:46:20.776Z,90.80
2023-03-24T10:48:50.352Z,88.10
2023-03-24T10:51:19.464Z,87.10
2023-03-24T10:53:50.669Z,84.40
2023-03-24T10:56:36.955Z,83.60
2023-03-24T10:59:06.435Z,81.60
2023-03-24T11:01:35.212Z,82.00
2023-03-24T11:04:05.617Z,81.50
2023-03-24T11:06:33.496Z,80.20
2023-03-24T11:09:21.217Z,80.50
2023-03-24T11:11:48.406Z,79.00
2023-03-24T11:14:27.210Z,80.40
2023-03-24T11:17:12.932Z,79.20
2023-03-24T11:19:39.903Z,79.60
2023-03-24T11:22:07.368Z,81.00
2023-03-24T11:24:38.468Z,80.80
2023-03-24T11:27:05.964Z,80.30
2023-03-24T11:29:39.752Z,80.90
2023-03-24T11:32:14.288Z,81.10
2023-03-24T11:34:46.722Z,82.30
2023-03-24T11:37:26.451Z,83.50
2023-03-24T11:40:15.543Z,84.80
2023-03-24T11:42:46.256Z,85.60
2023-03-24T11:45:37.011Z,86.00
2023-03-24T11:48:28.826Z,87.20
2023-03-24T11:50:57.572Z,87.60
2023-03-24T11:53:31.700Z,88.70
2023-03-24T11:56:25.632Z,90.10
2023-03-24T11:59:11.154Z,90.80
2023-03-24T12:01:45.236Z,91.20
2023-03-24T12:04:36.959Z,91.40
2023-03-24T12:07:35.882Z,91.20
2023-03-24T12:10:29.660Z,91.50
2023-03-24T12:13:22.074Z,91.60
2023-03-24T12:16:04.887Z,92.30
2023-03-24T12:18:56.464Z,92.80
2023-03-24T12:21:36.556Z,93.20
2023-03-24T12:24:26.278Z,93.10
2023-03-24T12:26:59.343Z,93.10
2023-03-24T12:29:48.595Z,93.40
2023-03-24T12:32:29.544Z,93.90
2023-03-24T12:35:06.006Z,92.90
2023-03-24T12:37:58.444Z,92.90
2023-03-24T12:40:47.712Z,92.50
2023-03-24T12:43:39.868Z,92.40
2023-03-24T12:46:51.458Z,92.10
2023-03-24T12:49:42.458Z,91.80
2023-03-24T12:52:20.769Z,92.50
2023-03-24T12:55:06.488Z,92.80
2023-03-24T12:57:42.875Z,92.30
2023-03-24T13:00:23.872Z,91.80
2023-03-24T13:03:05.859Z,91.20
2023-03-24T13:05:50.963Z,91.10
2023-03-24T13:08:29.094Z,91.00
2023-03-24T13:11:06.206Z,90.60
2023-03-24T13:13:40.086Z,90.10
2023-03-24T13:16:21.389Z,90.30
2023-03-24T13:18:52.346Z,90.80
2023-03-24T13:21:23.413Z,90.40
2023-03-24T13:24:02.059Z,90.10
2023-03-24T13:26:39.071Z,88.50
2023-03-24T13:29:23.338Z,88.50
2023-03-24T13:32:00.204Z,87.80
2023-03-24T13:34:36.481Z,86.90
2023-03-24T13:37:06.890Z,87.30
2023-03-24T13:39:36.102Z,88.80
2023-03-24T13:42:03.765Z,89.70
2023-03-24T13:44:40.856Z,89.40
2023-03-24T13:47:15.913Z,89.30
2023-03-24T13:49:53.652Z,88.60
2023-03-24T13:52:27.884Z,88.30
2023-03-24T13:54:59.288Z,88.70
2023-03-24T13:57:26.766Z,89.10
2023-03-24T14:00:12.138Z,88.30
2023-03-24T14:02:47.743Z,85.70
2023-03-24T14:05:26.277Z,85.00
2023-03-24T14:08:13.162Z,84.50
2023-03-24T14:10:43.956Z,85.40
2023-03-24T14:13:13.615Z,85.50
2023-03-24T14:15:44.433Z,85.80
2023-03-24T14:18:24.500Z,86.50
2023-03-24T14:20:57.659Z,87.20
2023-03-24T14:23:43.888Z,88.30
2023-03-24T14:26:35.478Z,90.10
2023-03-24T14:29:02.753Z,90.40
2023-03-24T14:31:31.864Z,90.80
2023-03-24T14:34:02.595Z,91.50
2023-03-24T14:36:41.884Z,91.90
2023-03-24T14:39:45.485Z,92.50
2023-03-24T14:42:33.990Z,93.30
2023-03-24T14:45:24.888Z,94.00
2023-03-24T14:47:59.572Z,94.40
2023-03-24T14:50:28.543Z,94.80
2023-03-24T14:53:02.004Z,94.80
2023-03-24T14:55:30.605Z,95.00
2023-03-24T14:58:03.681Z,94.90
2023-03-24T15:01:03.894Z,94.90
2023-03-24T15:03:57.872Z,95.10
2023-03-24T15:06:24.766Z,95.00
2023-03-24T15:08:58.418Z,94.70
2023-03-24T15:11:38.070Z,95.00
2023-03-24T15:14:16.070Z,94.80
2023-03-24T15:16:50.825Z,94.80
2023-03-24T15:19:29.312Z,94.90
2023-03-24T15:22:10.517Z,95.10
2023-03-24T15:24:38.205Z,95.30
2023-03-24T15:27:07.871Z,95.10
2023-03-24T15:29:40.303Z,94.70
2023-03-24T15:32:15.362Z,94.50
2023-03-24T15:34:46.359Z,94.40
2023-03-24T15:37:25.332Z,94.30
2023-03-24T15:40:01.955Z,94.10
2023-03-24T15:42:43.633Z,94.10
2023-03-24T15:45:43.352Z,93.80
2023-03-24T15:48:22.958Z,93.60
2023-03-24T15:51:02.141Z,93.50
2023-03-24T15:54:19.003Z,93.50
2023-03-24T15:57:00.473Z,93.60
2023-03-24T15:59:35.814Z,93.80
2023-03-24T16:02:07.378Z,93.90
2023-03-24T16:04:34.108Z,93.90
2023-03-24T16:07:00.873Z,93.90
2023-03-24T16:09:37.805Z,93.90
2023-03-24T16:12:10.220Z,94.10
2023-03-24T16:14:38.650Z,94.10
2023-03-24T16:17:05.752Z,94.10
2023-03-24T16:19:32.913Z,94.00
2023-03-24T16:21:59.894Z,94.40
2023-03-24T16:24:26.645Z,94.10
2023-03-24T16:26:53.579Z,94.10
2023-03-24T16:29:22.668Z,94.20
2023-03-24T16:31:51.960Z,94.40
2023-03-24T16:34:22.700Z,94.60
2023-03-24T16:36:51.424Z,94.80
2023-03-24T16:39:24.218Z,94.90
2023-03-24T16:41:51.139Z,95.00
2023-03-24T16:44:18.017Z,94.80
2023-03-24T16:46:47.030Z,94.70
2023-03-24T16:49:18.878Z,94.80
2023-03-24T16:51:46.714Z,94.90
2023-03-24T16:54:13.606Z,94.90
2023-03-24T16:56:40.553Z,95.10
2023-03-24T16:59:08.923Z,95.10
2023-03-24T17:01:41.390Z,95.30
2023-03-24T17:04:19.102Z,95.60
2023-03-24T17:06:49.382Z,95.90
2023-03-24T17:09:16.584Z,95.70
2023-03-24T17:11:53.522Z,95.70
2023-03-24T17:14:20.832Z,95.80
2023-03-24T17:16:49.214Z,95.60
2023-03-24T17:19:19.301Z,95.50
2023-03-24T17:22:02.969Z,95.40
2023-03-24T17:24:35.734Z,95.40
2023-03-24T17:27:03.432Z,95.20
2023-03-24T17:29:30.364Z,95.20
2023-03-24T17:31:57.128Z,95.20
2023-03-24T17:34:23.749Z,95.20
2023-03-24T17:36:51.785Z,95.20
2023-03-24T17:39:19.865Z,95.20
2023-03-24T17:41:46.693Z,95.20
2023-03-24T17:44:13.447Z,95.20
2023-03-24T17:46:40.311Z,95.20
2023-03-24T17:49:07.082Z,95.30
2023-03-24T17:51:33.849Z,95.30
2023-03-24T17:54:00.616Z,95.30
2023-03-24T17:56:27.305Z,95.30
2023-03-24T17:58:54.827Z,95.40
2023-03-24T18:01:23.536Z,95.40
2023-03-24T18:03:50.747Z,95.50
2023-03-24T18:06:17.481Z,95.50
2023-03-24T18:08:44.275Z,95.50
2023-03-24T18:11:14.343Z,95.60
2023-03-24T18:13:42.352Z,95.70
2023-03-24T18:16:20.799Z,95.60
2023-03-24T18:18:49.194Z,95.70
2023-03-24T18:21:16.382Z,95.70
2023-03-24T18:23:43.696Z,95.70
2023-03-24T18:26:10.404Z,95.70
2023-03-24T18:28:38.624Z,95.70
2023-03-24T18:31:13.194Z,95.80
2023-03-24T18:33:42.549Z,95.90
2023-03-24T18:36:10.326Z,95.80
2023-03-24T18:38:37.183Z,95.80
2023-03-24T18:41:07.154Z,95.80
2023-03-24T18:43:37.452Z,95.90
2023-03-24T18:46:09.132Z,95.90
2023-03-24T18:48:41.797Z,96.00
2023-03-24T18:51:08.917Z,96.10
2023-03-24T18:53:35.823Z,96.10
2023-03-24T18:56:03.969Z,96.10
2023-03-24T18:58:31.074Z,96.00
2023-03-24T19:00:59.061Z,96.00
2023-03-24T19:03:26.967Z,96.10
2023-03-24T19:05:53.836Z,96.00
2023-03-24T19:08:21.455Z,96.10
2023-03-24T19:10:48.739Z,96.10
2023-03-24T19:13:16.788Z,96.00
2023-03-24T19:15:47.999Z,96.00
2023-03-24T19:18:15.593Z,96.10
2023-03-24T19:20:42.344Z,96.10
2023-03-24T19:23:09.107Z,96.10
2023-03-24T19:25:36.223Z,96.10
2023-03-24T19:28:03.047Z,96.10
2023-03-24T19:30:29.776Z,96.10
2023-03-24T19:32:56.877Z,96.10
2023-03-24T19:35:23.924Z,96.10
2023-03-24T19:37:51.023Z,96.10
2023-03-24T19:40:17.962Z,96.10
2023-03-24T19:42:44.989Z,96.10
2023-03-24T19:45:16.855Z,96.10
2023-03-24T19:47:45.897Z,96.10
2023-03-24T19:50:17.471Z,96.10
2023-03-24T19:52:45.943Z,96.20
2023-03-24T19:55:13.206Z,96.10
2023-03-24T19:57:40.152Z,96.10
2023-03-24T20:00:09.998Z,96.10
2023-03-24T20:02:37.769Z,96.20
2023-03-24T20:05:05.003Z,96.20
2023-03-24T20:07:31.759Z,96.30
2023-03-24T20:09:58.523Z,96.30
2023-03-24T20:12:26.750Z,96.40
2023-03-24T20:14:54.573Z,96.50
2023-03-24T20:17:23.159Z,96.60
2023-03-24T20:19:50.709Z,96.70
2023-03-24T20:22:17.419Z,96.70
2023-03-24T20:24:44.456Z,96.70
2023-03-24T20:27:11.396Z,96.80
2023-03-24T20:29:39.790Z,96.80
2023-03-24T20:32:09.892Z,96.90
2023-03-24T20:34:38.051Z,97.00
2023-03-24T20:37:06.016Z,97.00
2023-03-24T20:39:33.184Z,97.00
2023-03-24T20:41:59.956Z,97.00
2023-03-24T20:44:27.221Z,97.00
2023-03-24T20:46:56.856Z,97.10
2023-03-24T20:49:24.279Z,97.10
2023-03-24T20:51:51.524Z,97.10
2023-03-24T20:54:18.301Z,97.10
2023-03-24T20:56:44.978Z,97.10
2023-03-24T20:59:13.736Z,97.10
2023-03-24T21:01:42.040Z,97.10
2023-03-24T21:04:09.961Z,97.10
2023-03-24T21:06:40.244Z,97.10
2023-03-24T21:09:07.445Z,97.00
2023-03-24T21:11:34.694Z,97.00
2023-03-24T21:14:02.724Z,97.00
2023-03-24T21:16:33.757Z,97.00
2023-03-24T21:19:04.067Z,96.90
2023-03-24T21:21:32.008Z,96.90
2023-03-24T21:24:00.258Z,96.80
2023-03-24T21:26:27.194Z,96.80
2023-03-24T21:28:53.880Z,96.80
2023-03-24T21:31:24.849Z,96.80
2023-03-24T21:33:52.325Z,96.70
2023-03-24T21:36:19.481Z,96.70
2023-03-24T21:38:49.424Z,96.80
2023-03-24T21:41:17.507Z,96.70
2023-03-24T21:43:46.779Z,96.70
2023-03-24T21:46:20.788Z,96.60
2023-03-24T21:48:52.020Z,96.60
2023-03-24T21:51:26.596Z,96.60
2023-03-24T21:53:59.224Z,96.60
2023-03-24T21:56:26.029Z,96.60
2023-03-24T21:58:54.517Z,96.60
2023-03-24T22:01:22.125Z,96.60
2023-03-24T22:03:48.884Z,96.60
2023-03-24T22:06:15.673Z,96.60
2023-03-24T22:08:48.569Z,96.60
2023-03-24T22:11:18.390Z,96.60
2023-03-24T22:13:46.220Z,96.60
2023-03-24T22:16:13.520Z,96.60
2023-03-24T22:18:40.449Z,96.60
2023-03-24T22:21:09.376Z,96.60
2023-03-24T22:23:39.268Z,96.60
2023-03-24T22:26:08.637Z,96.60
2023-03-24T22:28:36.501Z,96.50
2023-03-24T22:31:07.922Z,96.50
2023-03-24T22:33:35.758Z,96.50
2023-03-24T22:36:03.319Z,96.50
2023-03-24T22:38:31.162Z,96.50
2023-03-24T22:40:59.316Z,96.40
2023-03-24T22:43:26.955Z,96.40
2023-03-24T22:45:53.912Z,96.40
2023-03-24T22:48:21.246Z,96.30
2023-03-24T22:50:48.024Z,96.30
2023-03-24T22:53:15.580Z,96.30
2023-03-24T22:55:44.357Z,96.30
2023-03-24T22:58:13.080Z,96.40
2023-03-24T23:00:44.611Z,96.30
2023-03-24T23:03:11.734Z,96.30
2023-03-24T23:05:42.463Z,96.30
2023-03-24T23:08:09.925Z,96.20
2023-03-24T23:10:38.781Z,96.20
2023-03-24T23:13:05.546Z,96.20
2023-03-24T23:15:33.182Z,96.20
2023-03-24T23:18:00.190Z,96.20
2023-03-24T23:20:28.165Z,96.20
2023-03-24T23:22:55.560Z,96.20
2023-03-24T23:25:22.816Z,96.20
2023-03-24T23:27:49.845Z,96.30
2023-03-24T23:30:16.613Z,96.30
2023-03-24T23:32:46.778Z,96.30
2023-03-24T23:35:13.797Z,96.30
2023-03-24T23:37:40.514Z,96.40
2023-03-24T23:40:14.563Z,96.40
2023-03-24T23:42:46.745Z,96.50
2023-03-24T23:45:17.799Z,96.60
2023-03-24T23:47:49.873Z,96.60
2023-03-24T23:50:17.635Z,96.70
2023-03-24T23:52:44.275Z,96.80
2023-03-24T23:55:17.484Z,96.80
2023-03-24T23:57:46.659Z,97.00
